createdAt,value
2023-05-10T00:01:24.317Z,4.73
2023-05-10T00:03:52.358Z,4.90
2023-05-10T00:06:20.395Z,5.30
2023-05-10T00:08:48.252Z,5.40
2023-05-10T00:11:16.311Z,5.10
2023-05-10T00:13:44.255Z,5.47
2023-05-10T00:16:14.205Z,4.90
2023-05-10T00:18:42.484Z,5.30
2023-05-10T00:21:10.909Z,5.30
2023-05-10T00:23:38.826Z,4.93
2023-05-10T00:26:06.826Z,4.83
2023-05-10T00:28:34.743Z,5.00
2023-05-10T00:31:02.633Z,4.93
2023-05-10T00:33:31.933Z,5.07
2023-05-10T00:35:59.887Z,5.67
2023-05-10T00:38:29.022Z,5.00
2023-05-10T00:40:57.069Z,5.40
2023-05-10T00:43:25.209Z,4.90
2023-05-10T00:45:53.171Z,5.43
2023-05-10T00:48:22.025Z,5.17
2023-05-10T00:50:52.313Z,5.00
2023-05-10T00:53:20.954Z,5.37
2023-05-10T00:55:49.060Z,5.60
2023-05-10T00:58:17.346Z,5.20
2023-05-10T01:00:49.608Z,5.73
2023-05-10T01:03:18.260Z,6.03
2023-05-10T01:05:46.396Z,5.20
2023-05-10T01:08:15.794Z,5.20
2023-05-10T01:10:45.020Z,6.30
2023-05-10T01:13:14.674Z,5.63
2023-05-10T01:15:43.183Z,5.50
2023-05-10T01:18:11.592Z,5.47
2023-05-10T01:20:49.993Z,5.70
2023-05-10T01:23:46.062Z,5.30
2023-05-10T01:26:29.554Z,6.03
2023-05-10T01:29:32.507Z,6.00
2023-05-10T01:32:29.370Z,6.10
2023-05-10T01:35:04.746Z,5.60
2023-05-10T01:37:47.957Z,5.67
2023-05-10T01:40:21.996Z,5.20
2023-05-10T01:42:53.936Z,5.90
2023-05-10T01:45:29.478Z,5.63
2023-05-10T01:48:07.893Z,5.50
2023-05-10T01:50:38.414Z,5.70
2023-05-10T01:53:10.187Z,5.57
2023-05-10T01:55:47.495Z,5.73
2023-05-10T01:58:19.365Z,6.13
2023-05-10T02:00:48.618Z,5.20
2023-05-10T02:03:18.477Z,6.30
2023-05-10T02:05:49.034Z,5.63
2023-05-10T02:08:20.065Z,6.10
2023-05-10T02:10:50.041Z,6.07
2023-05-10T02:13:18.891Z,5.83
2023-05-10T02:15:49.549Z,5.73
2023-05-10T02:18:20.125Z,5.50
2023-05-10T02:20:49.256Z,5.67
2023-05-10T02:23:19.897Z,6.13
2023-05-10T02:25:50.307Z,5.67
2023-05-10T02:28:20.314Z,6.40
2023-05-10T02:30:49.672Z,5.40
2023-05-10T02:33:20.543Z,5.93
2023-05-10T02:35:49.938Z,5.87
2023-05-10T02:38:19.115Z,5.97
2023-05-10T02:40:49.172Z,6.33
2023-05-10T02:43:19.145Z,5.83
2023-05-10T02:45:50.037Z,6.60
2023-05-10T02:48:19.857Z,5.60
2023-05-10T02:50:52.466Z,6.13
2023-05-10T02:53:25.199Z,5.90
2023-05-10T02:55:54.869Z,6.07
2023-05-10T02:58:24.064Z,6.03
2023-05-10T03:00:52.021Z,5.87
2023-05-10T03:03:22.132Z,5.63
2023-05-10T03:05:49.962Z,6.13
2023-05-10T03:08:18.211Z,5.53
2023-05-10T03:11:01.967Z,5.67
2023-05-10T03:13:38.596Z,5.97
2023-05-10T03:16:12.753Z,5.77
2023-05-10T03:18:45.912Z,5.83
2023-05-10T03:21:16.394Z,6.23
2023-05-10T03:23:48.570Z,6.20
2023-05-10T03:26:26.670Z,5.87
2023-05-10T03:28:55.674Z,6.60
2023-05-10T03:31:23.961Z,6.47
2023-05-10T03:33:54.488Z,6.40
2023-05-10T03:36:22.413Z,6.20
2023-05-10T03:38:50.442Z,6.80
2023-05-10T03:41:18.343Z,5.93
2023-05-10T03:43:46.647Z,6.83
2023-05-10T03:46:14.605Z,5.87
2023-05-10T03:48:42.464Z,6.20
2023-05-10T03:51:11.781Z,6.43
2023-05-10T03:53:39.729Z,6.13
2023-05-10T03:56:07.820Z,6.13
2023-05-10T03:58:35.788Z,5.37
2023-05-10T04:01:03.721Z,6.27
2023-05-10T04:03:31.762Z,5.47
2023-05-10T04:06:03.237Z,5.90
2023-05-10T04:08:33.324Z,5.87
2023-05-10T04:11:08.243Z,5.60
2023-05-10T04:13:36.187Z,5.57
2023-05-10T04:16:04.476Z,5.17
2023-05-10T04:18:32.902Z,5.30
2023-05-10T04:21:00.845Z,5.43
2023-05-10T04:23:29.109Z,5.50
2023-05-10T04:26:05.790Z,5.63
2023-05-10T04:28:33.924Z,4.90
2023-05-10T04:31:05.234Z,5.47
2023-05-10T04:33:33.660Z,5.27
2023-05-10T04:36:01.782Z,5.30
2023-05-10T04:38:30.084Z,5.10
2023-05-10T04:41:08.269Z,4.87
2023-05-10T04:43:37.371Z,4.90
2023-05-10T04:46:05.762Z,4.90
2023-05-10T04:48:33.734Z,4.63
2023-05-10T04:51:02.003Z,4.90
2023-05-10T04:53:29.858Z,4.63
2023-05-10T04:55:59.804Z,4.93
2023-05-10T04:58:29.215Z,4.45
2023-05-10T05:00:57.131Z,4.28
2023-05-10T05:03:25.236Z,4.07
2023-05-10T05:05:53.410Z,5.03
2023-05-10T05:08:22.259Z,3.92
2023-05-10T05:10:51.285Z,3.90
2023-05-10T05:13:19.550Z,4.75
2023-05-10T05:15:48.942Z,3.72
2023-05-10T05:18:16.835Z,4.45
2023-05-10T05:20:45.207Z,4.22
2023-05-10T05:23:13.092Z,4.22
2023-05-10T05:25:40.942Z,4.13
2023-05-10T05:28:09.347Z,3.95
2023-05-10T05:30:37.299Z,3.70
2023-05-10T05:33:06.543Z,3.65
2023-05-10T05:35:34.636Z,3.80
2023-05-10T05:38:02.543Z,3.67
2023-05-10T05:40:30.465Z,3.78
2023-05-10T05:42:58.516Z,3.47
2023-05-10T05:45:26.645Z,3.38
2023-05-10T05:47:57.108Z,4.05
2023-05-10T05:50:26.488Z,3.25
2023-05-10T05:52:56.419Z,3.30
2023-05-10T05:55:27.113Z,3.33
2023-05-10T05:57:55.313Z,3.35
2023-05-10T06:00:23.612Z,3.40
2023-05-10T06:02:51.636Z,3.58
2023-05-10T06:05:19.766Z,3.45
2023-05-10T06:07:50.016Z,3.55
2023-05-10T06:10:22.728Z,3.47
2023-05-10T06:12:50.643Z,3.33
2023-05-10T06:15:18.935Z,3.72
2023-05-10T06:17:48.373Z,3.55
2023-05-10T06:20:16.424Z,3.60
2023-05-10T06:22:44.309Z,3.55
2023-05-10T06:25:15.507Z,3.88
2023-05-10T06:27:44.085Z,3.30
2023-05-10T06:30:14.437Z,3.28
2023-05-10T06:32:42.849Z,3.65
2023-05-10T06:35:11.521Z,3.88
2023-05-10T06:37:39.510Z,2.97
2023-05-10T06:40:08.999Z,3.00
2023-05-10T06:42:38.989Z,3.65
2023-05-10T06:45:07.971Z,3.22
2023-05-10T06:47:38.679Z,3.33
2023-05-10T06:50:08.005Z,3.38
2023-05-10T06:52:37.653Z,3.38
2023-05-10T06:55:07.222Z,3.55
2023-05-10T06:57:36.663Z,3.42
2023-05-10T07:00:07.719Z,4.95
2023-05-10T07:02:35.748Z,3.20
2023-05-10T07:05:03.994Z,3.35
2023-05-10T07:07:32.384Z,3.33
2023-05-10T07:10:00.306Z,3.20
2023-05-10T07:12:28.415Z,3.83
2023-05-10T07:14:56.584Z,3.78
2023-05-10T07:17:26.163Z,3.38
2023-05-10T07:19:54.125Z,3.20
2023-05-10T07:22:22.121Z,3.22
2023-05-10T07:24:50.194Z,3.45
2023-05-10T07:27:18.080Z,3.40
2023-05-10T07:29:46.263Z,3.20
2023-05-10T07:32:14.240Z,3.00
2023-05-10T07:34:43.649Z,3.05
2023-05-10T07:37:11.934Z,2.97
2023-05-10T07:39:39.753Z,2.78
2023-05-10T07:42:07.771Z,3.25
2023-05-10T07:44:35.771Z,2.65
2023-05-10T07:47:03.604Z,3.30
2023-05-10T07:49:31.494Z,3.10
2023-05-10T07:52:01.686Z,3.35
2023-05-10T07:54:29.671Z,2.95
2023-05-10T07:56:57.558Z,3.00
2023-05-10T07:59:25.918Z,2.90
2023-05-10T08:01:53.800Z,2.83
2023-05-10T08:04:21.686Z,2.90
2023-05-10T08:06:49.820Z,2.72
2023-05-10T08:09:19.274Z,2.65
2023-05-10T08:11:47.090Z,2.83
2023-05-10T08:14:15.147Z,2.90
2023-05-10T08:16:42.973Z,2.80
2023-05-10T08:19:10.864Z,2.67
2023-05-10T08:21:40.041Z,3.10
2023-05-10T08:24:08.323Z,2.60
2023-05-10T08:26:37.555Z,2.55
2023-05-10T08:29:05.584Z,2.92
2023-05-10T08:31:33.629Z,2.78
2023-05-10T08:34:01.638Z,2.58
2023-05-10T08:36:30.108Z,2.63
2023-05-10T08:38:58.722Z,2.50
2023-05-10T08:41:29.839Z,2.60
2023-05-10T08:43:59.857Z,2.75
2023-05-10T08:46:29.588Z,3.30
2023-05-10T08:48:57.920Z,3.30
2023-05-10T08:51:29.152Z,2.92
2023-05-10T08:53:57.550Z,3.15
2023-05-10T08:56:26.101Z,3.15
2023-05-10T08:58:54.378Z,3.10
2023-05-10T09:01:24.656Z,3.30
2023-05-10T09:03:52.989Z,2.97
2023-05-10T09:06:21.017Z,3.10
2023-05-10T09:08:49.672Z,2.78
2023-05-10T09:11:19.505Z,2.83
2023-05-10T09:13:49.820Z,2.80
2023-05-10T09:16:21.889Z,3.35
2023-05-10T09:18:52.133Z,2.55
2023-05-10T09:21:21.774Z,2.30
2023-05-10T09:23:51.332Z,2.80
2023-05-10T09:26:24.079Z,2.55
2023-05-10T09:28:53.661Z,2.60
2023-05-10T09:31:22.187Z,3.22
2023-05-10T09:33:52.636Z,2.60
2023-05-10T09:36:20.583Z,2.42
2023-05-10T09:38:49.980Z,2.75
2023-05-10T09:41:19.641Z,2.75
2023-05-10T09:43:47.735Z,2.75
2023-05-10T09:46:15.915Z,2.90
2023-05-10T09:48:46.028Z,2.75
2023-05-10T09:51:21.465Z,2.63
2023-05-10T09:53:51.629Z,3.40
2023-05-10T09:56:39.977Z,3.58
2023-05-10T09:59:09.118Z,3.22
2023-05-10T10:01:37.110Z,5.47
2023-05-10T10:04:07.216Z,3.00
2023-05-10T10:06:41.449Z,2.40
2023-05-10T10:09:10.219Z,2.60
2023-05-10T10:11:39.974Z,3.40
2023-05-10T10:14:08.480Z,2.55
2023-05-10T10:16:41.453Z,3.45
2023-05-10T10:19:14.881Z,3.17
2023-05-10T10:21:44.092Z,3.05
2023-05-10T10:24:11.948Z,3.30
2023-05-10T10:26:42.745Z,2.45
2023-05-10T10:29:23.656Z,2.65
2023-05-10T10:31:59.753Z,2.55
2023-05-10T10:34:30.048Z,2.95
2023-05-10T10:37:06.327Z,2.90
2023-05-10T10:39:37.905Z,2.53
2023-05-10T10:42:06.530Z,2.40
2023-05-10T10:44:41.755Z,2.70
2023-05-10T10:47:26.042Z,2.63
2023-05-10T10:50:04.841Z,2.90
2023-05-10T10:52:36.030Z,2.85
2023-05-10T10:55:06.486Z,3.03
2023-05-10T10:57:35.713Z,2.85
2023-05-10T11:00:31.976Z,2.45
2023-05-10T11:03:01.703Z,3.38
2023-05-10T11:05:41.449Z,2.70
2023-05-10T11:08:13.600Z,3.22
2023-05-10T11:10:53.163Z,2.67
2023-05-10T11:13:30.674Z,2.60
2023-05-10T11:16:00.127Z,2.85
2023-05-10T11:18:30.792Z,2.72
2023-05-10T11:21:01.015Z,3.85
2023-05-10T11:23:36.536Z,2.28
2023-05-10T11:26:04.468Z,3.10
2023-05-10T11:28:32.617Z,2.72
2023-05-10T11:31:00.671Z,2.63
2023-05-10T11:33:28.598Z,3.30
2023-05-10T11:35:56.512Z,2.47
2023-05-10T11:38:24.425Z,2.90
2023-05-10T11:40:54.466Z,2.47
2023-05-10T11:43:29.224Z,2.50
2023-05-10T11:45:57.575Z,3.08
2023-05-10T11:48:25.584Z,2.50
2023-05-10T11:51:12.454Z,2.55
2023-05-10T11:53:40.674Z,2.65
2023-05-10T11:56:10.170Z,2.97
2023-05-10T11:58:39.425Z,2.90
2023-05-10T12:01:09.212Z,3.03
2023-05-10T12:03:37.924Z,2.67
2023-05-10T12:06:06.812Z,2.72
2023-05-10T12:08:36.342Z,2.85
2023-05-10T12:11:11.425Z,2.47
2023-05-10T12:13:41.316Z,3.03
2023-05-10T12:16:16.381Z,2.95
2023-05-10T12:18:44.615Z,2.78
2023-05-10T12:21:13.708Z,2.67
2023-05-10T12:23:43.742Z,2.83
2023-05-10T12:26:12.168Z,2.90
2023-05-10T12:28:40.589Z,2.80
2023-05-10T12:31:09.344Z,2.83
2023-05-10T12:33:42.687Z,2.50
2023-05-10T12:36:11.490Z,2.92
2023-05-10T12:38:40.918Z,2.78
2023-05-10T12:41:11.653Z,2.58
2023-05-10T12:43:40.340Z,2.55
2023-05-10T12:46:09.823Z,2.22
2023-05-10T12:48:38.309Z,2.65
2023-05-10T12:51:10.391Z,2.80
2023-05-10T12:53:38.488Z,3.20
2023-05-10T12:56:07.083Z,2.60
2023-05-10T12:58:36.460Z,2.22
2023-05-10T13:01:05.944Z,2.78
2023-05-10T13:03:34.046Z,2.30
2023-05-10T13:06:02.058Z,2.60
2023-05-10T13:08:34.327Z,2.80
2023-05-10T13:11:03.036Z,2.58
2023-05-10T13:13:30.954Z,2.38
2023-05-10T13:16:00.187Z,2.15
2023-05-10T13:18:28.365Z,2.60
2023-05-10T13:20:56.826Z,2.58
2023-05-10T13:23:24.730Z,2.45
2023-05-10T13:25:53.075Z,2.00
2023-05-10T13:28:23.266Z,2.20
2023-05-10T13:30:51.185Z,2.33
2023-05-10T13:33:20.693Z,1.98
2023-05-10T13:35:48.574Z,2.15
2023-05-10T13:38:16.414Z,2.42
2023-05-10T13:40:44.496Z,1.92
2023-05-10T13:43:12.372Z,2.15
2023-05-10T13:45:40.228Z,2.60
2023-05-10T13:48:08.282Z,2.30
2023-05-10T13:50:37.619Z,2.60
2023-05-10T13:53:06.476Z,2.03
2023-05-10T13:55:36.620Z,2.67
2023-05-10T13:58:04.550Z,2.28
2023-05-10T14:00:32.959Z,2.40
2023-05-10T14:03:01.772Z,2.15
2023-05-10T14:05:29.936Z,2.47
2023-05-10T14:07:59.326Z,2.33
2023-05-10T14:10:28.239Z,2.20
2023-05-10T14:12:56.408Z,2.17
2023-05-10T14:15:24.524Z,2.13
2023-05-10T14:17:52.837Z,2.20
2023-05-10T14:20:20.729Z,2.05
2023-05-10T14:22:48.552Z,2.30
2023-05-10T14:25:18.088Z,2.65
2023-05-10T14:27:46.071Z,2.40
2023-05-10T14:30:14.762Z,2.20
2023-05-10T14:32:42.761Z,2.17
2023-05-10T14:35:13.054Z,1.88
2023-05-10T14:37:41.874Z,2.58
2023-05-10T14:40:11.001Z,2.15
2023-05-10T14:42:40.364Z,2.03
2023-05-10T14:45:09.826Z,1.92
2023-05-10T14:47:37.990Z,1.90
2023-05-10T14:50:06.683Z,2.40
2023-05-10T14:52:34.572Z,1.80
2023-05-10T14:55:02.858Z,2.08
2023-05-10T14:57:30.866Z,2.05
2023-05-10T15:00:00.135Z,1.90
2023-05-10T15:02:28.955Z,2.10
2023-05-10T15:04:58.469Z,2.17
2023-05-10T15:07:26.844Z,2.10
2023-05-10T15:09:55.280Z,1.92
2023-05-10T15:12:23.355Z,2.33
2023-05-10T15:14:51.212Z,1.80
2023-05-10T15:17:20.584Z,2.10
2023-05-10T15:19:48.532Z,2.20
2023-05-10T15:22:16.372Z,1.73
2023-05-10T15:24:44.338Z,2.13
2023-05-10T15:27:14.549Z,3.10
2023-05-10T15:29:42.484Z,2.15
2023-05-10T15:32:10.548Z,1.95
2023-05-10T15:34:39.983Z,1.90
2023-05-10T15:37:07.820Z,1.83
2023-05-10T15:39:36.001Z,1.83
2023-05-10T15:42:04.799Z,2.40
2023-05-10T15:44:32.725Z,2.20
2023-05-10T15:47:01.053Z,2.15
2023-05-10T15:49:29.001Z,2.30
2023-05-10T15:51:58.254Z,2.60
2023-05-10T15:54:27.036Z,2.53
2023-05-10T15:56:55.206Z,2.22
2023-05-10T15:59:23.304Z,2.15
2023-05-10T16:01:51.769Z,2.10
2023-05-10T16:04:19.758Z,2.35
2023-05-10T16:06:47.656Z,2.40
2023-05-10T16:09:17.215Z,1.80
2023-05-10T16:11:45.455Z,2.30
2023-05-10T16:14:13.359Z,3.08
2023-05-10T16:16:41.477Z,2.00
2023-05-10T16:19:09.370Z,2.00
2023-05-10T16:21:38.118Z,4.85
2023-05-10T16:24:06.374Z,2.25
2023-05-10T16:26:40.653Z,2.00
2023-05-10T16:29:08.976Z,2.10
2023-05-10T16:31:36.875Z,3.60
2023-05-10T16:34:04.828Z,2.38
2023-05-10T16:36:34.264Z,2.38
2023-05-10T16:39:02.732Z,2.20
2023-05-10T16:41:30.633Z,2.50
2023-05-10T16:44:00.705Z,2.20
2023-05-10T16:46:28.790Z,2.20
2023-05-10T16:48:56.625Z,2.45
2023-05-10T16:51:24.648Z,2.13
2023-05-10T16:53:52.487Z,2.15
2023-05-10T16:56:21.829Z,2.30
2023-05-10T16:58:50.383Z,2.20
2023-05-10T17:01:20.049Z,2.20
2023-05-10T17:03:48.096Z,2.17
2023-05-10T17:06:16.471Z,2.20
2023-05-10T17:08:48.553Z,2.40
2023-05-10T17:11:16.499Z,2.28
2023-05-10T17:13:44.625Z,2.25
2023-05-10T17:16:12.809Z,1.95
2023-05-10T17:18:42.780Z,2.25
2023-05-10T17:21:10.865Z,1.98
2023-05-10T17:23:38.734Z,2.83
2023-05-10T17:26:07.317Z,2.33
2023-05-10T17:28:35.296Z,2.03
2023-05-10T17:31:03.334Z,1.85
2023-05-10T17:33:31.274Z,2.53
2023-05-10T17:36:00.578Z,2.10
2023-05-10T17:38:28.418Z,1.83
2023-05-10T17:40:56.340Z,1.83
2023-05-10T17:43:26.139Z,2.50
2023-05-10T17:45:54.327Z,1.83
2023-05-10T17:48:23.108Z,1.85
2023-05-10T17:50:51.204Z,2.10
2023-05-10T17:53:20.735Z,1.70
2023-05-10T17:55:48.689Z,2.08
2023-05-10T17:58:16.578Z,1.92
2023-05-10T18:00:44.529Z,2.15
2023-05-10T18:03:12.765Z,2.10
2023-05-10T18:05:40.852Z,2.30
2023-05-10T18:08:08.781Z,1.92
2023-05-10T18:10:41.236Z,2.00
2023-05-10T18:13:09.631Z,2.20
2023-05-10T18:15:37.594Z,2.00
2023-05-10T18:18:06.093Z,1.88
2023-05-10T18:20:34.276Z,2.10
2023-05-10T18:23:02.621Z,2.08
2023-05-10T18:25:30.575Z,1.80
2023-05-10T18:27:59.813Z,2.20
2023-05-10T18:30:27.752Z,2.22
2023-05-10T18:32:55.755Z,2.30
2023-05-10T18:35:23.732Z,2.10
2023-05-10T18:37:51.884Z,2.15
2023-05-10T18:40:20.008Z,2.20
2023-05-10T18:42:50.056Z,2.13
2023-05-10T18:45:19.994Z,2.20
2023-05-10T18:47:48.415Z,2.20
2023-05-10T18:50:17.164Z,2.20
2023-05-10T18:52:45.577Z,2.10
2023-05-10T18:55:13.773Z,1.83
2023-05-10T18:57:42.519Z,1.90
2023-05-10T19:00:12.688Z,2.30
2023-05-10T19:02:42.319Z,2.10
2023-05-10T19:05:11.002Z,2.28
2023-05-10T19:07:40.573Z,2.10
2023-05-10T19:10:09.246Z,2.13
2023-05-10T19:12:37.561Z,2.20
2023-05-10T19:15:06.470Z,1.85
2023-05-10T19:17:36.921Z,2.30
2023-05-10T19:20:10.504Z,2.70
2023-05-10T19:22:54.107Z,2.25
2023-05-10T19:25:29.427Z,2.08
2023-05-10T19:27:58.622Z,2.40
2023-05-10T19:30:30.272Z,2.33
2023-05-10T19:32:58.444Z,2.20
2023-05-10T19:35:27.843Z,2.30
2023-05-10T19:37:57.832Z,2.10
2023-05-10T19:40:26.152Z,2.35
2023-05-10T19:42:56.874Z,2.38
2023-05-10T19:45:24.704Z,2.45
2023-05-10T19:47:52.853Z,2.40
2023-05-10T19:50:21.078Z,2.05
2023-05-10T19:52:50.910Z,2.22
2023-05-10T19:55:28.182Z,2.22
2023-05-10T19:57:56.169Z,2.53
2023-05-10T20:00:24.379Z,2.42
2023-05-10T20:02:52.268Z,2.72
2023-05-10T20:05:20.229Z,2.40
2023-05-10T20:07:48.163Z,2.50
2023-05-10T20:10:17.652Z,2.30
2023-05-10T20:12:51.061Z,2.42
2023-05-10T20:15:20.830Z,2.60
2023-05-10T20:17:49.381Z,2.45
2023-05-10T20:20:18.005Z,2.33
2023-05-10T20:22:46.264Z,2.80
2023-05-10T20:25:14.876Z,2.72
2023-05-10T20:27:44.308Z,2.60
2023-05-10T20:30:13.193Z,2.90
2023-05-10T20:32:41.090Z,2.70
2023-05-10T20:35:09.573Z,2.67
2023-05-10T20:37:38.333Z,3.03
2023-05-10T20:40:08.654Z,2.33
2023-05-10T20:42:36.577Z,3.10
2023-05-10T20:45:07.421Z,2.88
2023-05-10T20:47:35.317Z,3.00
2023-05-10T20:50:03.232Z,2.80
2023-05-10T20:52:31.536Z,2.85
2023-05-10T20:54:59.494Z,3.13
2023-05-10T20:57:27.366Z,2.95
2023-05-10T20:59:59.139Z,2.70
2023-05-10T21:02:31.410Z,3.30
2023-05-10T21:05:00.673Z,3.40
2023-05-10T21:07:28.572Z,2.60
2023-05-10T21:09:56.385Z,3.42
2023-05-10T21:12:24.449Z,2.92
2023-05-10T21:14:52.308Z,2.63
2023-05-10T21:17:20.428Z,3.00
2023-05-10T21:19:50.462Z,2.88
2023-05-10T21:22:18.304Z,2.85
2023-05-10T21:24:46.249Z,3.13
2023-05-10T21:27:14.407Z,3.00
2023-05-10T21:29:42.316Z,3.35
2023-05-10T21:32:10.524Z,3.22
2023-05-10T21:34:38.837Z,2.75
2023-05-10T21:37:08.156Z,2.85
2023-05-10T21:39:36.033Z,3.17
2023-05-10T21:42:04.682Z,3.03
2023-05-10T21:44:32.624Z,2.70
2023-05-10T21:47:00.667Z,2.88
2023-05-10T21:49:28.899Z,3.10
2023-05-10T21:51:56.850Z,3.33
2023-05-10T21:54:26.371Z,3.40
2023-05-10T21:56:56.758Z,3.15
2023-05-10T21:59:24.656Z,3.17
2023-05-10T22:01:53.452Z,3.40
2023-05-10T22:04:21.700Z,3.45
2023-05-10T22:06:50.167Z,3.53
2023-05-10T22:09:20.815Z,3.83
2023-05-10T22:11:50.319Z,3.23
2023-05-10T22:14:18.198Z,3.10
2023-05-10T22:16:46.401Z,3.13
2023-05-10T22:19:14.414Z,3.37
2023-05-10T22:21:42.444Z,3.40
2023-05-10T22:24:10.322Z,2.90
2023-05-10T22:26:38.319Z,3.30
2023-05-10T22:29:07.550Z,3.67
2023-05-10T22:31:36.232Z,3.07
2023-05-10T22:34:04.441Z,3.30
2023-05-10T22:36:32.810Z,3.33
2023-05-10T22:39:01.670Z,3.13
2023-05-10T22:41:29.828Z,2.90
2023-05-10T22:43:57.658Z,3.30
2023-05-10T22:46:30.381Z,3.27
2023-05-10T22:48:59.697Z,3.53
2023-05-10T22:51:28.595Z,3.17
2023-05-10T22:53:56.596Z,3.00
2023-05-10T22:56:27.328Z,3.23
2023-05-10T22:58:56.489Z,3.33
2023-05-10T23:01:26.807Z,3.13
2023-05-10T23:03:58.536Z,3.00
2023-05-10T23:06:28.018Z,2.90
2023-05-10T23:08:57.697Z,3.00
2023-05-10T23:11:25.875Z,3.07
2023-05-10T23:13:53.895Z,2.80
2023-05-10T23:16:22.317Z,2.73
2023-05-10T23:18:51.726Z,3.03
2023-05-10T23:21:23.685Z,2.87
2023-05-10T23:23:52.092Z,3.60
2023-05-10T23:26:20.388Z,3.23
2023-05-10T23:28:48.607Z,3.07
2023-05-10T23:31:16.599Z,3.47
2023-05-10T23:33:44.632Z,3.23
2023-05-10T23:36:12.742Z,2.90
2023-05-10T23:38:42.366Z,3.27
2023-05-10T23:41:10.992Z,3.23
2023-05-10T23:43:39.157Z,3.27
2023-05-10T23:46:08.539Z,3.07
2023-05-10T23:48:36.746Z,2.80
2023-05-10T23:51:07.680Z,3.00
2023-05-10T23:53:35.732Z,3.20
2023-05-10T23:56:05.375Z,3.10
2023-05-10T23:58:33.372Z,3.07
